sensor_id;sensor_type;location;lat;lon;timestamp;P1;durP1;ratioP1;P2;durP2;ratioP2
7231;SDS011;3657;49.630;11.018;2023-03-24T00:01:41;7.70;;;7.27;;
7231;SDS011;3657;49.630;11.018;2023-03-24T00:04:07;8.57;;;7.77;;
7231;SDS011;3657;49.630;11.018;2023-03-24T00:06:34;8.07;;;7.73;;
7231;SDS011;3657;49.630;11.018;2023-03-24T00:09:02;7.97;;;7.53;;
7231;SDS011;3657;49.630;11.018;2023-03-24T00:11:30;7.97;;;7.60;;
7231;SDS011;3657;49.630;11.018;2023-03-24T00:13:59;8.80;;;8.50;;
7231;SDS011;3657;49.630;11.018;2023-03-24T00:16:26;7.83;;;7.53;;
7231;SDS011;3657;49.630;11.018;2023-03-24T00:18:53;8.27;;;7.73;;
7231;SDS011;3657;49.630;11.018;2023-03-24T00:21:20;8.13;;;7.80;;
7231;SDS011;3657;49.630;11.018;2023-03-24T00:23:48;7.50;;;7.10;;
7231;SDS011;3657;49.630;11.018;2023-03-24T00:26:19;7.50;;;7.17;;
7231;SDS011;3657;49.630;11.018;2023-03-24T00:28:47;7.70;;;7.40;;
7231;SDS011;3657;49.630;11.018;2023-03-24T00:31:14;6.60;;;6.40;;
7231;SDS011;3657;49.630;11.018;2023-03-24T00:33:42;7.67;;;7.40;;
7231;SDS011;3657;49.630;11.018;2023-03-24T00:36:14;7.03;;;6.83;;
7231;SDS011;3657;49.630;11.018;2023-03-24T00:38:42;7.43;;;7.13;;
7231;SDS011;3657;49.630;11.018;2023-03-24T00:41:09;6.63;;;6.43;;
7231;SDS011;3657;49.630;11.018;2023-03-24T00:43:37;6.93;;;6.73;;
7231;SDS011;3657;49.630;11.018;2023-03-24T00:46:05;7.13;;;6.93;;
7231;SDS011;3657;49.630;11.018;2023-03-24T00:48:35;6.63;;;6.27;;
7231;SDS011;3657;49.630;11.018;2023-03-24T00:51:06;7.67;;;7.47;;
7231;SDS011;3657;49.630;11.018;2023-03-24T00:53:34;6.90;;;6.60;;
7231;SDS011;3657;49.630;11.018;2023-03-24T00:56:02;6.70;;;6.30;;
7231;SDS011;3657;49.630;11.018;2023-03-24T00:58:28;7.23;;;6.80;;
7231;SDS011;3657;49.630;11.018;2023-03-24T01:00:59;6.17;;;5.97;;
7231;SDS011;3657;49.630;11.018;2023-03-24T01:03:26;8.07;;;7.77;;
7231;SDS011;3657;49.630;11.018;2023-03-24T01:05:53;8.23;;;7.80;;
7231;SDS011;3657;49.630;11.018;2023-03-24T01:08:21;7.90;;;7.40;;
7231;SDS011;3657;49.630;11.018;2023-03-24T01:10:49;7.50;;;7.30;;
7231;SDS011;3657;49.630;11.018;2023-03-24T01:13:18;8.10;;;7.70;;
7231;SDS011;3657;49.630;11.018;2023-03-24T01:15:45;7.90;;;7.57;;
7231;SDS011;3657;49.630;11.018;2023-03-24T01:18:13;7.90;;;7.60;;
7231;SDS011;3657;49.630;11.018;2023-03-24T01:20:40;7.83;;;7.53;;
7231;SDS011;3657;49.630;11.018;2023-03-24T01:23:09;8.03;;;7.73;;
7231;SDS011;3657;49.630;11.018;2023-03-24T01:25:37;7.20;;;7.00;;
7231;SDS011;3657;49.630;11.018;2023-03-24T01:28:06;7.43;;;7.07;;
7231;SDS011;3657;49.630;11.018;2023-03-24T01:30:33;7.57;;;7.27;;
7231;SDS011;3657;49.630;11.018;2023-03-24T01:33:00;8.10;;;7.80;;
7231;SDS011;3657;49.630;11.018;2023-03-24T01:35:28;8.33;;;8.03;;
7231;SDS011;3657;49.630;11.018;2023-03-24T01:37:54;8.43;;;8.13;;
7231;SDS011;3657;49.630;11.018;2023-03-24T01:40:24;9.80;;;9.30;;
7231;SDS011;3657;49.630;11.018;2023-03-24T01:42:51;7.27;;;7.03;;
7231;SDS011;3657;49.630;11.018;2023-03-24T01:45:39;8.43;;;8.13;;
7231;SDS011;3657;49.630;11.018;2023-03-24T01:48:17;9.17;;;8.77;;
7231;SDS011;3657;49.630;11.018;2023-03-24T01:50:50;8.23;;;7.93;;
7231;SDS011;3657;49.630;11.018;2023-03-24T01:53:25;8.00;;;7.63;;
7231;SDS011;3657;49.630;11.018;2023-03-24T01:55:53;7.70;;;7.40;;
7231;SDS011;3657;49.630;11.018;2023-03-24T01:58:20;8.50;;;8.20;;
7231;SDS011;3657;49.630;11.018;2023-03-24T02:00:48;9.00;;;8.70;;
7231;SDS011;3657;49.630;11.018;2023-03-24T02:03:17;8.23;;;7.93;;
7231;SDS011;3657;49.630;11.018;2023-03-24T02:05:46;8.53;;;8.13;;
7231;SDS011;3657;49.630;11.018;2023-03-24T02:08:17;8.30;;;8.03;;
7231;SDS011;3657;49.630;11.018;2023-03-24T02:10:47;9.03;;;8.63;;
7231;SDS011;3657;49.630;11.018;2023-03-24T02:13:16;8.90;;;8.50;;
7231;SDS011;3657;49.630;11.018;2023-03-24T02:15:44;8.10;;;7.80;;
7231;SDS011;3657;49.630;11.018;2023-03-24T02:18:21;8.30;;;8.00;;
7231;SDS011;3657;49.630;11.018;2023-03-24T02:21:08;9.40;;;9.00;;
7231;SDS011;3657;49.630;11.018;2023-03-24T02:24:18;8.63;;;8.33;;
7231;SDS011;3657;49.630;11.018;2023-03-24T02:27:08;8.43;;;8.13;;
7231;SDS011;3657;49.630;11.018;2023-03-24T02:36:03;8.90;;;8.60;;
7231;SDS011;3657;49.630;11.018;2023-03-24T02:41:54;9.40;;;9.00;;
7231;SDS011;3657;49.630;11.018;2023-03-24T02:44:33;8.53;;;8.23;;
7231;SDS011;3657;49.630;11.018;2023-03-24T02:47:08;8.90;;;8.60;;
7231;SDS011;3657;49.630;11.018;2023-03-24T02:49:42;10.23;;;9.50;;
7231;SDS011;3657;49.630;11.018;2023-03-24T02:52:15;8.03;;;7.73;;
7231;SDS011;3657;49.630;11.018;2023-03-24T02:54:48;8.30;;;8.00;;
7231;SDS011;3657;49.630;11.018;2023-03-24T02:57:21;7.90;;;7.50;;
7231;SDS011;3657;49.630;11.018;2023-03-24T02:59:57;8.77;;;8.40;;
7231;SDS011;3657;49.630;11.018;2023-03-24T03:02:27;8.40;;;8.10;;
7231;SDS011;3657;49.630;11.018;2023-03-24T03:04:58;7.83;;;7.53;;
7231;SDS011;3657;49.630;11.018;2023-03-24T03:07:30;9.43;;;9.03;;
7231;SDS011;3657;49.630;11.018;2023-03-24T03:10:04;8.43;;;8.03;;
7231;SDS011;3657;49.630;11.018;2023-03-24T03:12:38;8.17;;;7.87;;
7231;SDS011;3657;49.630;11.018;2023-03-24T03:15:07;8.37;;;8.07;;
7231;SDS011;3657;49.630;11.018;2023-03-24T03:17:37;8.97;;;8.67;;
7231;SDS011;3657;49.630;11.018;2023-03-24T03:20:08;7.80;;;7.40;;
7231;SDS011;3657;49.630;11.018;2023-03-24T03:22:38;7.97;;;7.67;;
7231;SDS011;3657;49.630;11.018;2023-03-24T03:25:10;8.83;;;8.43;;
7231;SDS011;3657;49.630;11.018;2023-03-24T03:27:41;8.73;;;8.27;;
7231;SDS011;3657;49.630;11.018;2023-03-24T03:30:11;8.50;;;8.10;;
7231;SDS011;3657;49.630;11.018;2023-03-24T03:32:43;8.60;;;8.20;;
7231;SDS011;3657;49.630;11.018;2023-03-24T03:35:18;8.77;;;8.37;;
7231;SDS011;3657;49.630;11.018;2023-03-24T03:37:49;8.73;;;8.43;;
7231;SDS011;3657;49.630;11.018;2023-03-24T03:40:23;8.93;;;8.53;;
7231;SDS011;3657;49.630;11.018;2023-03-24T03:42:54;8.77;;;8.47;;
7231;SDS011;3657;49.630;11.018;2023-03-24T03:45:21;8.43;;;8.13;;
7231;SDS011;3657;49.630;11.018;2023-03-24T03:47:47;8.37;;;8.07;;
7231;SDS011;3657;49.630;11.018;2023-03-24T03:50:15;8.50;;;8.10;;
7231;SDS011;3657;49.630;11.018;2023-03-24T03:52:42;8.00;;;7.63;;
7231;SDS011;3657;49.630;11.018;2023-03-24T03:55:09;8.33;;;8.03;;
7231;SDS011;3657;49.630;11.018;2023-03-24T03:57:38;8.07;;;7.70;;
7231;SDS011;3657;49.630;11.018;2023-03-24T04:00:06;8.70;;;8.40;;
7231;SDS011;3657;49.630;11.018;2023-03-24T04:02:42;8.33;;;7.93;;
7231;SDS011;3657;49.630;11.018;2023-03-24T04:05:28;8.97;;;8.57;;
7231;SDS011;3657;49.630;11.018;2023-03-24T04:08:01;8.27;;;7.97;;
7231;SDS011;3657;49.630;11.018;2023-03-24T04:10:47;8.17;;;7.87;;
7231;SDS011;3657;49.630;11.018;2023-03-24T04:13:32;8.50;;;8.20;;
7231;SDS011;3657;49.630;11.018;2023-03-24T04:16:09;8.90;;;8.50;;
7231;SDS011;3657;49.630;11.018;2023-03-24T04:18:47;8.13;;;7.83;;
7231;SDS011;3657;49.630;11.018;2023-03-24T04:21:31;9.10;;;8.70;;
7231;SDS011;3657;49.630;11.018;2023-03-24T04:24:10;7.93;;;7.63;;
7231;SDS011;3657;49.630;11.018;2023-03-24T04:26:51;8.80;;;8.40;;
7231;SDS011;3657;49.630;11.018;2023-03-24T04:29:28;9.10;;;8.70;;
7231;SDS011;3657;49.630;11.018;2023-03-24T04:32:02;9.23;;;8.83;;
7231;SDS011;3657;49.630;11.018;2023-03-24T04:34:36;8.73;;;8.33;;
7231;SDS011;3657;49.630;11.018;2023-03-24T04:37:07;9.60;;;9.20;;
7231;SDS011;3657;49.630;11.018;2023-03-24T04:39:38;9.00;;;8.60;;
7231;SDS011;3657;49.630;11.018;2023-03-24T04:42:08;9.43;;;9.13;;
7231;SDS011;3657;49.630;11.018;2023-03-24T04:44:40;8.83;;;8.47;;
7231;SDS011;3657;49.630;11.018;2023-03-24T04:47:07;8.77;;;8.47;;
7231;SDS011;3657;49.630;11.018;2023-03-24T04:49:36;9.63;;;9.07;;
7231;SDS011;3657;49.630;11.018;2023-03-24T04:52:03;9.37;;;8.93;;
7231;SDS011;3657;49.630;11.018;2023-03-24T04:54:30;9.20;;;8.80;;
7231;SDS011;3657;49.630;11.018;2023-03-24T04:56:57;9.43;;;9.13;;
7231;SDS011;3657;49.630;11.018;2023-03-24T04:59:26;8.70;;;8.40;;
7231;SDS011;3657;49.630;11.018;2023-03-24T05:01:54;9.57;;;9.27;;
7231;SDS011;3657;49.630;11.018;2023-03-24T05:04:22;9.27;;;8.80;;
7231;SDS011;3657;49.630;11.018;2023-03-24T05:06:49;9.10;;;8.80;;
7231;SDS011;3657;49.630;11.018;2023-03-24T05:09:16;9.47;;;9.17;;
7231;SDS011;3657;49.630;11.018;2023-03-24T05:11:45;8.67;;;8.37;;
7231;SDS011;3657;49.630;11.018;2023-03-24T05:14:12;10.60;;;10.00;;
7231;SDS011;3657;49.630;11.018;2023-03-24T05:16:39;9.63;;;9.33;;
7231;SDS011;3657;49.630;11.018;2023-03-24T05:19:08;9.43;;;8.93;;
7231;SDS011;3657;49.630;11.018;2023-03-24T05:21:35;9.10;;;8.70;;
7231;SDS011;3657;49.630;11.018;2023-03-24T05:24:02;9.13;;;8.83;;
7231;SDS011;3657;49.630;11.018;2023-03-24T05:26:29;8.93;;;8.60;;
7231;SDS011;3657;49.630;11.018;2023-03-24T05:28:55;8.83;;;8.53;;
7231;SDS011;3657;49.630;11.018;2023-03-24T05:31:22;9.27;;;8.87;;
7231;SDS011;3657;49.630;11.018;2023-03-24T05:33:49;8.60;;;8.30;;
7231;SDS011;3657;49.630;11.018;2023-03-24T05:36:17;9.13;;;8.80;;
7231;SDS011;3657;49.630;11.018;2023-03-24T05:38:44;8.83;;;8.53;;
7231;SDS011;3657;49.630;11.018;2023-03-24T05:41:10;9.87;;;9.37;;
7231;SDS011;3657;49.630;11.018;2023-03-24T05:43:37;9.80;;;9.40;;
7231;SDS011;3657;49.630;11.018;2023-03-24T05:46:04;8.70;;;8.40;;
7231;SDS011;3657;49.630;11.018;2023-03-24T05:48:31;7.67;;;7.37;;
7231;SDS011;3657;49.630;11.018;2023-03-24T05:50:57;8.17;;;7.80;;
7231;SDS011;3657;49.630;11.018;2023-03-24T05:53:25;9.07;;;8.43;;
7231;SDS011;3657;49.630;11.018;2023-03-24T05:55:52;8.50;;;8.20;;
7231;SDS011;3657;49.630;11.018;2023-03-24T05:58:18;8.90;;;8.30;;
7231;SDS011;3657;49.630;11.018;2023-03-24T06:00:46;9.80;;;9.40;;
7231;SDS011;3657;49.630;11.018;2023-03-24T06:03:12;10.17;;;9.77;;
7231;SDS011;3657;49.630;11.018;2023-03-24T06:05:41;11.00;;;10.50;;
7231;SDS011;3657;49.630;11.018;2023-03-24T06:08:10;8.60;;;8.30;;
7231;SDS011;3657;49.630;11.018;2023-03-24T06:10:38;8.00;;;7.70;;
7231;SDS011;3657;49.630;11.018;2023-03-24T06:13:05;9.17;;;8.57;;
7231;SDS011;3657;49.630;11.018;2023-03-24T06:15:33;11.10;;;10.53;;
7231;SDS011;3657;49.630;11.018;2023-03-24T06:18:00;9.93;;;9.50;;
7231;SDS011;3657;49.630;11.018;2023-03-24T06:20:29;9.80;;;9.40;;
7231;SDS011;3657;49.630;11.018;2023-03-24T06:22:55;9.60;;;9.20;;
7231;SDS011;3657;49.630;11.018;2023-03-24T06:25:23;8.53;;;8.23;;
7231;SDS011;3657;49.630;11.018;2023-03-24T06:27:53;8.50;;;8.10;;
7231;SDS011;3657;49.630;11.018;2023-03-24T06:30:20;9.33;;;8.77;;
7231;SDS011;3657;49.630;11.018;2023-03-24T06:32:47;8.27;;;7.87;;
7231;SDS011;3657;49.630;11.018;2023-03-24T06:35:14;9.07;;;8.67;;
7231;SDS011;3657;49.630;11.018;2023-03-24T06:37:42;8.00;;;7.43;;
7231;SDS011;3657;49.630;11.018;2023-03-24T06:40:09;8.70;;;8.40;;
7231;SDS011;3657;49.630;11.018;2023-03-24T06:42:39;7.37;;;7.17;;
7231;SDS011;3657;49.630;11.018;2023-03-24T06:45:07;7.50;;;7.20;;
7231;SDS011;3657;49.630;11.018;2023-03-24T06:47:34;7.40;;;7.17;;
7231;SDS011;3657;49.630;11.018;2023-03-24T06:50:01;8.00;;;7.60;;
7231;SDS011;3657;49.630;11.018;2023-03-24T06:52:28;7.80;;;7.60;;
7231;SDS011;3657;49.630;11.018;2023-03-24T06:54:55;8.10;;;7.80;;
7231;SDS011;3657;49.630;11.018;2023-03-24T06:57:22;9.20;;;8.63;;
7231;SDS011;3657;49.630;11.018;2023-03-24T06:59:48;8.53;;;8.13;;
7231;SDS011;3657;49.630;11.018;2023-03-24T07:02:16;7.37;;;7.13;;
7231;SDS011;3657;49.630;11.018;2023-03-24T07:04:43;7.30;;;7.00;;
7231;SDS011;3657;49.630;11.018;2023-03-24T07:07:10;7.47;;;7.00;;
7231;SDS011;3657;49.630;11.018;2023-03-24T07:09:37;6.90;;;6.70;;
7231;SDS011;3657;49.630;11.018;2023-03-24T07:12:04;7.63;;;7.33;;
7231;SDS011;3657;49.630;11.018;2023-03-24T07:14:31;6.40;;;6.20;;
7231;SDS011;3657;49.630;11.018;2023-03-24T07:16:58;6.30;;;6.10;;
7231;SDS011;3657;49.630;11.018;2023-03-24T07:19:27;7.80;;;7.23;;
7231;SDS011;3657;49.630;11.018;2023-03-24T07:21:53;6.57;;;6.37;;
7231;SDS011;3657;49.630;11.018;2023-03-24T07:24:20;6.10;;;5.90;;
7231;SDS011;3657;49.630;11.018;2023-03-24T07:26:47;6.07;;;5.77;;
7231;SDS011;3657;49.630;11.018;2023-03-24T07:29:13;5.60;;;5.40;;
7231;SDS011;3657;49.630;11.018;2023-03-24T07:31:40;7.47;;;7.07;;
7231;SDS011;3657;49.630;11.018;2023-03-24T07:34:07;6.20;;;6.00;;
7231;SDS011;3657;49.630;11.018;2023-03-24T07:36:35;6.43;;;6.23;;
7231;SDS011;3657;49.630;11.018;2023-03-24T07:39:02;8.13;;;7.83;;
7231;SDS011;3657;49.630;11.018;2023-03-24T07:41:30;10.53;;;10.13;;
7231;SDS011;3657;49.630;11.018;2023-03-24T07:43:57;7.37;;;7.07;;
7231;SDS011;3657;49.630;11.018;2023-03-24T07:46:24;7.60;;;7.30;;
7231;SDS011;3657;49.630;11.018;2023-03-24T07:48:50;6.23;;;6.03;;
7231;SDS011;3657;49.630;11.018;2023-03-24T07:51:17;5.50;;;5.30;;
7231;SDS011;3657;49.630;11.018;2023-03-24T07:53:45;4.33;;;4.23;;
7231;SDS011;3657;49.630;11.018;2023-03-24T07:56:12;5.47;;;5.33;;
7231;SDS011;3657;49.630;11.018;2023-03-24T07:58:39;5.33;;;5.13;;
7231;SDS011;3657;49.630;11.018;2023-03-24T08:01:06;5.60;;;4.83;;
7231;SDS011;3657;49.630;11.018;2023-03-24T08:03:34;5.00;;;4.90;;
7231;SDS011;3657;49.630;11.018;2023-03-24T08:06:01;5.40;;;5.20;;
7231;SDS011;3657;49.630;11.018;2023-03-24T08:08:28;3.90;;;3.80;;
7231;SDS011;3657;49.630;11.018;2023-03-24T08:10:56;4.67;;;4.57;;
7231;SDS011;3657;49.630;11.018;2023-03-24T08:13:23;4.43;;;4.33;;
7231;SDS011;3657;49.630;11.018;2023-03-24T08:15:50;6.33;;;5.57;;
7231;SDS011;3657;49.630;11.018;2023-03-24T08:18:17;5.10;;;4.90;;
7231;SDS011;3657;49.630;11.018;2023-03-24T08:20:45;4.30;;;4.20;;
7231;SDS011;3657;49.630;11.018;2023-03-24T08:23:12;4.40;;;4.20;;
7231;SDS011;3657;49.630;11.018;2023-03-24T08:25:38;4.53;;;4.43;;
7231;SDS011;3657;49.630;11.018;2023-03-24T08:28:07;4.40;;;4.20;;
7231;SDS011;3657;49.630;11.018;2023-03-24T08:30:34;4.73;;;4.63;;
7231;SDS011;3657;49.630;11.018;2023-03-24T08:33:01;4.43;;;4.33;;
7231;SDS011;3657;49.630;11.018;2023-03-24T08:35:29;4.30;;;4.20;;
7231;SDS011;3657;49.630;11.018;2023-03-24T08:37:57;5.33;;;5.20;;
7231;SDS011;3657;49.630;11.018;2023-03-24T08:40:25;4.43;;;4.23;;
7231;SDS011;3657;49.630;11.018;2023-03-24T08:42:55;4.87;;;4.77;;
7231;SDS011;3657;49.630;11.018;2023-03-24T08:45:25;4.80;;;4.60;;
7231;SDS011;3657;49.630;11.018;2023-03-24T08:47:54;4.80;;;4.70;;
7231;SDS011;3657;49.630;11.018;2023-03-24T08:50:24;5.37;;;5.10;;
7231;SDS011;3657;49.630;11.018;2023-03-24T08:52:53;4.33;;;4.23;;
7231;SDS011;3657;49.630;11.018;2023-03-24T08:55:21;4.30;;;4.03;;
7231;SDS011;3657;49.630;11.018;2023-03-24T08:57:48;4.40;;;4.30;;
7231;SDS011;3657;49.630;11.018;2023-03-24T09:00:16;4.20;;;4.10;;
7231;SDS011;3657;49.630;11.018;2023-03-24T09:02:46;4.07;;;3.90;;
7231;SDS011;3657;49.630;11.018;2023-03-24T09:05:14;3.93;;;3.80;;
7231;SDS011;3657;49.630;11.018;2023-03-24T09:07:43;4.80;;;4.70;;
7231;SDS011;3657;49.630;11.018;2023-03-24T09:10:10;4.47;;;4.37;;
7231;SDS011;3657;49.630;11.018;2023-03-24T09:12:37;3.77;;;3.67;;
7231;SDS011;3657;49.630;11.018;2023-03-24T09:15:05;4.00;;;3.90;;
7231;SDS011;3657;49.630;11.018;2023-03-24T09:17:33;5.07;;;4.97;;
7231;SDS011;3657;49.630;11.018;2023-03-24T09:20:02;4.47;;;4.37;;
7231;SDS011;3657;49.630;11.018;2023-03-24T09:22:32;5.20;;;5.10;;
7231;SDS011;3657;49.630;11.018;2023-03-24T09:25:01;5.37;;;5.20;;
7231;SDS011;3657;49.630;11.018;2023-03-24T09:27:27;5.00;;;4.90;;
7231;SDS011;3657;49.630;11.018;2023-03-24T09:29:55;4.93;;;4.83;;
7231;SDS011;3657;49.630;11.018;2023-03-24T09:32:23;4.60;;;4.40;;
7231;SDS011;3657;49.630;11.018;2023-03-24T09:34:50;6.60;;;6.40;;
7231;SDS011;3657;49.630;11.018;2023-03-24T09:37:18;5.40;;;5.20;;
7231;SDS011;3657;49.630;11.018;2023-03-24T09:39:45;5.37;;;5.17;;
7231;SDS011;3657;49.630;11.018;2023-03-24T09:42:14;6.43;;;6.23;;
7231;SDS011;3657;49.630;11.018;2023-03-24T09:44:47;6.60;;;6.30;;
7231;SDS011;3657;49.630;11.018;2023-03-24T09:47:20;6.77;;;6.57;;
7231;SDS011;3657;49.630;11.018;2023-03-24T09:49:54;6.30;;;6.10;;
7231;SDS011;3657;49.630;11.018;2023-03-24T09:52:28;7.53;;;7.17;;
7231;SDS011;3657;49.630;11.018;2023-03-24T09:54:59;6.33;;;6.03;;
7231;SDS011;3657;49.630;11.018;2023-03-24T09:57:28;7.37;;;6.90;;
7231;SDS011;3657;49.630;11.018;2023-03-24T10:00:00;5.83;;;5.53;;
7231;SDS011;3657;49.630;11.018;2023-03-24T10:02:34;7.27;;;6.57;;
7231;SDS011;3657;49.630;11.018;2023-03-24T10:05:01;6.77;;;6.57;;
7231;SDS011;3657;49.630;11.018;2023-03-24T10:07:38;6.67;;;6.47;;
7231;SDS011;3657;49.630;11.018;2023-03-24T10:10:14;6.73;;;6.53;;
7231;SDS011;3657;49.630;11.018;2023-03-24T10:12:48;5.87;;;5.57;;
7231;SDS011;3657;49.630;11.018;2023-03-24T10:15:17;6.17;;;5.97;;
7231;SDS011;3657;49.630;11.018;2023-03-24T10:17:51;6.10;;;5.90;;
7231;SDS011;3657;49.630;11.018;2023-03-24T10:20:26;6.07;;;5.87;;
7231;SDS011;3657;49.630;11.018;2023-03-24T10:23:02;5.97;;;5.77;;
7231;SDS011;3657;49.630;11.018;2023-03-24T10:25:41;5.77;;;5.57;;
7231;SDS011;3657;49.630;11.018;2023-03-24T10:28:15;6.20;;;6.00;;
7231;SDS011;3657;49.630;11.018;2023-03-24T10:30:44;6.10;;;5.90;;
7231;SDS011;3657;49.630;11.018;2023-03-24T10:33:15;5.93;;;5.73;;
7231;SDS011;3657;49.630;11.018;2023-03-24T10:35:42;5.67;;;5.47;;
7231;SDS011;3657;49.630;11.018;2023-03-24T10:38:18;5.67;;;5.20;;
7231;SDS011;3657;49.630;11.018;2023-03-24T10:40:46;5.57;;;5.37;;
7231;SDS011;3657;49.630;11.018;2023-03-24T10:43:14;6.87;;;6.57;;
7231;SDS011;3657;49.630;11.018;2023-03-24T10:45:43;5.67;;;5.43;;
7231;SDS011;3657;49.630;11.018;2023-03-24T10:48:14;5.67;;;5.47;;
7231;SDS011;3657;49.630;11.018;2023-03-24T10:50:59;5.63;;;5.47;;
7231;SDS011;3657;49.630;11.018;2023-03-24T10:53:27;5.57;;;5.37;;
7231;SDS011;3657;49.630;11.018;2023-03-24T10:55:54;5.73;;;5.53;;
7231;SDS011;3657;49.630;11.018;2023-03-24T10:58:26;5.50;;;5.20;;
7231;SDS011;3657;49.630;11.018;2023-03-24T11:01:00;5.93;;;5.73;;
7231;SDS011;3657;49.630;11.018;2023-03-24T11:03:28;6.13;;;5.80;;
7231;SDS011;3657;49.630;11.018;2023-03-24T11:05:58;6.40;;;6.20;;
7231;SDS011;3657;49.630;11.018;2023-03-24T11:08:31;7.70;;;7.40;;
7231;SDS011;3657;49.630;11.018;2023-03-24T11:10:59;8.40;;;8.10;;
7231;SDS011;3657;49.630;11.018;2023-03-24T11:13:27;5.77;;;5.47;;
7231;SDS011;3657;49.630;11.018;2023-03-24T11:15:56;6.17;;;5.97;;
7231;SDS011;3657;49.630;11.018;2023-03-24T11:18:31;7.30;;;6.90;;
7231;SDS011;3657;49.630;11.018;2023-03-24T11:20:58;5.40;;;5.20;;
7231;SDS011;3657;49.630;11.018;2023-03-24T11:23:30;5.20;;;5.00;;
7231;SDS011;3657;49.630;11.018;2023-03-24T11:26:02;5.60;;;5.40;;
7231;SDS011;3657;49.630;11.018;2023-03-24T11:28:34;5.30;;;5.17;;
7231;SDS011;3657;49.630;11.018;2023-03-24T11:31:04;6.00;;;5.87;;
7231;SDS011;3657;49.630;11.018;2023-03-24T11:33:33;4.70;;;4.50;;
7231;SDS011;3657;49.630;11.018;2023-03-24T11:36:11;4.90;;;4.77;;
7231;SDS011;3657;49.630;11.018;2023-03-24T11:39:10;5.40;;;5.20;;
7231;SDS011;3657;49.630;11.018;2023-03-24T11:41:39;5.63;;;5.50;;
7231;SDS011;3657;49.630;11.018;2023-03-24T11:44:15;4.63;;;4.53;;
7231;SDS011;3657;49.630;11.018;2023-03-24T11:46:44;5.33;;;5.23;;
7231;SDS011;3657;49.630;11.018;2023-03-24T11:49:14;4.80;;;4.67;;
7231;SDS011;3657;49.630;11.018;2023-03-24T11:51:45;5.60;;;5.40;;
7231;SDS011;3657;49.630;11.018;2023-03-24T11:54:16;5.60;;;5.40;;
7231;SDS011;3657;49.630;11.018;2023-03-24T11:56:45;4.00;;;3.90;;
7231;SDS011;3657;49.630;11.018;2023-03-24T11:59:24;5.10;;;5.00;;
7231;SDS011;3657;49.630;11.018;2023-03-24T12:01:56;4.40;;;4.30;;
7231;SDS011;3657;49.630;11.018;2023-03-24T12:04:38;4.13;;;4.03;;
7231;SDS011;3657;49.630;11.018;2023-03-24T12:07:31;5.03;;;4.93;;
7231;SDS011;3657;49.630;11.018;2023-03-24T12:10:22;4.80;;;4.70;;
7231;SDS011;3657;49.630;11.018;2023-03-24T12:13:00;4.53;;;4.43;;
7231;SDS011;3657;49.630;11.018;2023-03-24T12:15:35;5.60;;;5.47;;
7231;SDS011;3657;49.630;11.018;2023-03-24T12:18:14;4.60;;;4.50;;
7231;SDS011;3657;49.630;11.018;2023-03-24T12:20:53;4.60;;;4.50;;
7231;SDS011;3657;49.630;11.018;2023-03-24T12:23:32;4.83;;;4.73;;
7231;SDS011;3657;49.630;11.018;2023-03-24T12:26:09;4.17;;;3.97;;
7231;SDS011;3657;49.630;11.018;2023-03-24T12:28:50;4.57;;;4.47;;
7231;SDS011;3657;49.630;11.018;2023-03-24T12:31:30;4.30;;;4.20;;
7231;SDS011;3657;49.630;11.018;2023-03-24T12:37:20;8.00;;;7.70;;
7231;SDS011;3657;49.630;11.018;2023-03-24T12:40:00;5.33;;;5.13;;
7231;SDS011;3657;49.630;11.018;2023-03-24T12:42:38;5.00;;;4.90;;
7231;SDS011;3657;49.630;11.018;2023-03-24T12:45:11;5.73;;;5.53;;
7231;SDS011;3657;49.630;11.018;2023-03-24T12:47:53;4.37;;;4.13;;
7231;SDS011;3657;49.630;11.018;2023-03-24T12:50:35;4.57;;;4.43;;
7231;SDS011;3657;49.630;11.018;2023-03-24T12:53:13;5.20;;;5.00;;
7231;SDS011;3657;49.630;11.018;2023-03-24T12:55:52;4.77;;;4.67;;
7231;SDS011;3657;49.630;11.018;2023-03-24T12:58:25;5.23;;;4.93;;
7231;SDS011;3657;49.630;11.018;2023-03-24T13:00:59;3.83;;;3.63;;
7231;SDS011;3657;49.630;11.018;2023-03-24T13:03:32;3.83;;;3.63;;
7231;SDS011;3657;49.630;11.018;2023-03-24T13:06:08;3.30;;;3.20;;
7231;SDS011;3657;49.630;11.018;2023-03-24T13:08:41;4.47;;;4.10;;
7231;SDS011;3657;49.630;11.018;2023-03-24T13:11:13;3.63;;;3.53;;
7231;SDS011;3657;49.630;11.018;2023-03-24T13:13:44;2.80;;;2.70;;
7231;SDS011;3657;49.630;11.018;2023-03-24T13:16:14;3.50;;;3.40;;
7231;SDS011;3657;49.630;11.018;2023-03-24T13:18:45;3.93;;;3.73;;
7231;SDS011;3657;49.630;11.018;2023-03-24T13:21:16;3.30;;;3.20;;
7231;SDS011;3657;49.630;11.018;2023-03-24T13:23:45;3.93;;;3.83;;
7231;SDS011;3657;49.630;11.018;2023-03-24T13:26:20;3.50;;;3.40;;
7231;SDS011;3657;49.630;11.018;2023-03-24T13:28:56;3.70;;;3.60;;
7231;SDS011;3657;49.630;11.018;2023-03-24T13:31:32;3.30;;;3.20;;
7231;SDS011;3657;49.630;11.018;2023-03-24T13:34:03;3.60;;;3.47;;
7231;SDS011;3657;49.630;11.018;2023-03-24T13:36:37;3.57;;;3.47;;
7231;SDS011;3657;49.630;11.018;2023-03-24T13:39:11;4.03;;;3.93;;
7231;SDS011;3657;49.630;11.018;2023-03-24T13:41:40;3.93;;;3.83;;
7231;SDS011;3657;49.630;11.018;2023-03-24T13:44:16;4.37;;;4.27;;
7231;SDS011;3657;49.630;11.018;2023-03-24T13:46:58;4.23;;;4.03;;
7231;SDS011;3657;49.630;11.018;2023-03-24T13:49:35;3.70;;;3.60;;
7231;SDS011;3657;49.630;11.018;2023-03-24T13:52:03;3.67;;;3.57;;
7231;SDS011;3657;49.630;11.018;2023-03-24T13:54:31;3.27;;;3.17;;
7231;SDS011;3657;49.630;11.018;2023-03-24T13:57:03;3.50;;;3.40;;
7231;SDS011;3657;49.630;11.018;2023-03-24T13:59:37;3.20;;;3.10;;
7231;SDS011;3657;49.630;11.018;2023-03-24T14:05:07;4.03;;;3.93;;
7231;SDS011;3657;49.630;11.018;2023-03-24T14:07:45;3.40;;;3.30;;
7231;SDS011;3657;49.630;11.018;2023-03-24T14:13:17;3.87;;;3.77;;
7231;SDS011;3657;49.630;11.018;2023-03-24T14:19:16;3.37;;;3.27;;
7231;SDS011;3657;49.630;11.018;2023-03-24T14:21:51;4.47;;;4.27;;
7231;SDS011;3657;49.630;11.018;2023-03-24T14:24:23;3.40;;;3.30;;
7231;SDS011;3657;49.630;11.018;2023-03-24T14:26:51;3.30;;;3.20;;
7231;SDS011;3657;49.630;11.018;2023-03-24T14:29:32;3.30;;;3.20;;
7231;SDS011;3657;49.630;11.018;2023-03-24T14:32:04;3.40;;;3.30;;
7231;SDS011;3657;49.630;11.018;2023-03-24T14:34:32;3.27;;;3.17;;
7231;SDS011;3657;49.630;11.018;2023-03-24T14:37:01;3.43;;;3.33;;
7231;SDS011;3657;49.630;11.018;2023-03-24T14:39:32;3.13;;;3.03;;
7231;SDS011;3657;49.630;11.018;2023-03-24T14:44:53;3.50;;;3.40;;
7231;SDS011;3657;49.630;11.018;2023-03-24T14:47:22;2.40;;;2.30;;
7231;SDS011;3657;49.630;11.018;2023-03-24T14:49:51;3.13;;;3.03;;
7231;SDS011;3657;49.630;11.018;2023-03-24T14:52:20;3.47;;;3.37;;
7231;SDS011;3657;49.630;11.018;2023-03-24T14:54:51;3.90;;;3.77;;
7231;SDS011;3657;49.630;11.018;2023-03-24T14:57:20;3.80;;;3.70;;
7231;SDS011;3657;49.630;11.018;2023-03-24T14:59:51;2.70;;;2.70;;
7231;SDS011;3657;49.630;11.018;2023-03-24T15:02:30;3.00;;;2.90;;
7231;SDS011;3657;49.630;11.018;2023-03-24T15:08:02;3.03;;;2.93;;
7231;SDS011;3657;49.630;11.018;2023-03-24T15:10:36;3.00;;;2.90;;
7231;SDS011;3657;49.630;11.018;2023-03-24T15:13:18;3.10;;;3.00;;
7231;SDS011;3657;49.630;11.018;2023-03-24T15:15:56;2.90;;;2.80;;
7231;SDS011;3657;49.630;11.018;2023-03-24T15:18:25;2.90;;;2.80;;
7231;SDS011;3657;49.630;11.018;2023-03-24T15:20:52;3.07;;;2.97;;
7231;SDS011;3657;49.630;11.018;2023-03-24T15:23:20;3.10;;;3.00;;
7231;SDS011;3657;49.630;11.018;2023-03-24T15:25:48;3.67;;;3.57;;
7231;SDS011;3657;49.630;11.018;2023-03-24T15:28:16;3.27;;;3.17;;
7231;SDS011;3657;49.630;11.018;2023-03-24T15:30:46;3.53;;;3.43;;
7231;SDS011;3657;49.630;11.018;2023-03-24T15:33:13;3.07;;;2.97;;
7231;SDS011;3657;49.630;11.018;2023-03-24T15:35:42;3.23;;;3.13;;
7231;SDS011;3657;49.630;11.018;2023-03-24T15:38:16;3.40;;;3.30;;
7231;SDS011;3657;49.630;11.018;2023-03-24T15:40:50;3.87;;;3.67;;
7231;SDS011;3657;49.630;11.018;2023-03-24T15:43:21;3.50;;;3.40;;
7231;SDS011;3657;49.630;11.018;2023-03-24T15:45:49;3.70;;;3.60;;
7231;SDS011;3657;49.630;11.018;2023-03-24T15:48:18;4.37;;;4.17;;
7231;SDS011;3657;49.630;11.018;2023-03-24T15:50:56;3.70;;;3.60;;